sensor_id;sensor_type;location;lat;lon;timestamp;P1;durP1;ratioP1;P2;durP2;ratioP2
28988;SDS011;16089;59.952;10.818;2023-08-21T00:01:30;36.85;;;11.90;;
28988;SDS011;16089;59.952;10.818;2023-08-21T00:03:57;35.03;;;13.35;;
28988;SDS011;16089;59.952;10.818;2023-08-21T00:06:24;39.53;;;12.75;;
28988;SDS011;16089;59.952;10.818;2023-08-21T00:08:50;36.90;;;12.95;;
28988;SDS011;16089;59.952;10.818;2023-08-21T00:11:16;39.92;;;12.93;;
28988;SDS011;16089;59.952;10.818;2023-08-21T00:13:43;38.33;;;12.25;;
28988;SDS011;16089;59.952;10.818;2023-08-21T00:16:09;46.17;;;13.43;;
28988;SDS011;16089;59.952;10.818;2023-08-21T00:18:37;45.17;;;14.43;;
28988;SDS011;16089;59.952;10.818;2023-08-21T00:21:03;41.28;;;13.95;;
28988;SDS011;16089;59.952;10.818;2023-08-21T00:23:30;41.47;;;14.63;;
28988;SDS011;16089;59.952;10.818;2023-08-21T00:25:56;41.22;;;13.07;;
28988;SDS011;16089;59.952;10.818;2023-08-21T00:28:23;38.13;;;12.75;;
28988;SDS011;16089;59.952;10.818;2023-08-21T00:30:49;48.10;;;15.25;;
28988;SDS011;16089;59.952;10.818;2023-08-21T00:33:16;39.38;;;13.23;;
28988;SDS011;16089;59.952;10.818;2023-08-21T00:35:43;37.75;;;12.57;;
28988;SDS011;16089;59.952;10.818;2023-08-21T00:38:10;38.83;;;11.77;;
28988;SDS011;16089;59.952;10.818;2023-08-21T00:40:36;40.28;;;13.50;;
28988;SDS011;16089;59.952;10.818;2023-08-21T00:43:03;38.75;;;13.55;;
28988;SDS011;16089;59.952;10.818;2023-08-21T00:45:30;37.65;;;13.48;;
28988;SDS011;16089;59.952;10.818;2023-08-21T00:47:56;40.90;;;14.48;;
28988;SDS011;16089;59.952;10.818;2023-08-21T00:50:23;41.15;;;11.90;;
28988;SDS011;16089;59.952;10.818;2023-08-21T00:52:50;34.40;;;12.68;;
28988;SDS011;16089;59.952;10.818;2023-08-21T00:55:17;35.20;;;12.18;;
28988;SDS011;16089;59.952;10.818;2023-08-21T00:57:43;33.78;;;11.32;;
28988;SDS011;16089;59.952;10.818;2023-08-21T01:00:11;43.90;;;13.00;;
28988;SDS011;16089;59.952;10.818;2023-08-21T01:02:38;33.20;;;12.48;;
28988;SDS011;16089;59.952;10.818;2023-08-21T01:05:04;36.90;;;12.32;;
28988;SDS011;16089;59.952;10.818;2023-08-21T01:07:31;34.85;;;12.32;;
28988;SDS011;16089;59.952;10.818;2023-08-21T01:10:04;30.80;;;10.68;;
28988;SDS011;16089;59.952;10.818;2023-08-21T01:12:37;37.20;;;12.35;;
28988;SDS011;16089;59.952;10.818;2023-08-21T01:15:04;31.92;;;11.45;;
28988;SDS011;16089;59.952;10.818;2023-08-21T01:17:32;35.17;;;11.20;;
28988;SDS011;16089;59.952;10.818;2023-08-21T01:19:59;38.95;;;12.23;;
28988;SDS011;16089;59.952;10.818;2023-08-21T01:22:27;31.23;;;11.00;;
28988;SDS011;16089;59.952;10.818;2023-08-21T01:24:55;36.58;;;11.23;;
28988;SDS011;16089;59.952;10.818;2023-08-21T01:27:21;36.05;;;11.55;;
28988;SDS011;16089;59.952;10.818;2023-08-21T01:29:48;34.50;;;11.70;;
28988;SDS011;16089;59.952;10.818;2023-08-21T01:32:17;37.22;;;10.55;;
28988;SDS011;16089;59.952;10.818;2023-08-21T01:34:45;32.53;;;11.82;;
28988;SDS011;16089;59.952;10.818;2023-08-21T01:37:12;35.08;;;11.38;;
28988;SDS011;16089;59.952;10.818;2023-08-21T01:39:39;35.88;;;11.77;;
28988;SDS011;16089;59.952;10.818;2023-08-21T01:42:07;45.00;;;12.05;;
28988;SDS011;16089;59.952;10.818;2023-08-21T01:44:33;30.70;;;12.38;;
28988;SDS011;16089;59.952;10.818;2023-08-21T01:46:59;36.83;;;12.13;;
28988;SDS011;16089;59.952;10.818;2023-08-21T01:49:26;39.13;;;11.20;;
28988;SDS011;16089;59.952;10.818;2023-08-21T01:51:52;31.05;;;11.50;;
28988;SDS011;16089;59.952;10.818;2023-08-21T01:54:18;34.60;;;11.80;;
28988;SDS011;16089;59.952;10.818;2023-08-21T01:56:45;35.03;;;11.18;;
28988;SDS011;16089;59.952;10.818;2023-08-21T01:59:12;29.98;;;11.48;;
28988;SDS011;16089;59.952;10.818;2023-08-21T02:01:39;37.78;;;11.95;;
28988;SDS011;16089;59.952;10.818;2023-08-21T02:04:05;35.92;;;11.10;;
28988;SDS011;16089;59.952;10.818;2023-08-21T02:06:31;37.15;;;10.27;;
28988;SDS011;16089;59.952;10.818;2023-08-21T02:08:58;35.60;;;10.57;;
28988;SDS011;16089;59.952;10.818;2023-08-21T02:11:24;30.98;;;10.15;;
28988;SDS011;16089;59.952;10.818;2023-08-21T02:13:50;31.73;;;10.20;;
28988;SDS011;16089;59.952;10.818;2023-08-21T02:16:18;31.10;;;10.85;;
28988;SDS011;16089;59.952;10.818;2023-08-21T02:18:45;32.03;;;10.43;;
28988;SDS011;16089;59.952;10.818;2023-08-21T02:21:11;33.42;;;10.90;;
28988;SDS011;16089;59.952;10.818;2023-08-21T02:23:38;29.95;;;10.38;;
28988;SDS011;16089;59.952;10.818;2023-08-21T02:26:04;32.75;;;10.73;;
28988;SDS011;16089;59.952;10.818;2023-08-21T02:28:30;35.45;;;10.52;;
28988;SDS011;16089;59.952;10.818;2023-08-21T02:30:56;36.90;;;10.00;;
28988;SDS011;16089;59.952;10.818;2023-08-21T02:33:24;35.97;;;10.57;;
28988;SDS011;16089;59.952;10.818;2023-08-21T02:35:50;39.50;;;10.38;;
28988;SDS011;16089;59.952;10.818;2023-08-21T02:38:17;28.95;;;9.85;;
28988;SDS011;16089;59.952;10.818;2023-08-21T02:40:43;23.23;;;9.43;;
28988;SDS011;16089;59.952;10.818;2023-08-21T02:43:09;31.83;;;10.15;;
28988;SDS011;16089;59.952;10.818;2023-08-21T02:45:36;28.85;;;8.70;;
28988;SDS011;16089;59.952;10.818;2023-08-21T02:48:02;27.13;;;9.82;;
28988;SDS011;16089;59.952;10.818;2023-08-21T02:50:30;27.70;;;9.50;;
28988;SDS011;16089;59.952;10.818;2023-08-21T02:52:56;29.83;;;9.50;;
28988;SDS011;16089;59.952;10.818;2023-08-21T02:55:23;32.90;;;9.73;;
28988;SDS011;16089;59.952;10.818;2023-08-21T02:57:49;31.17;;;10.70;;
28988;SDS011;16089;59.952;10.818;2023-08-21T03:00:16;27.75;;;9.63;;
28988;SDS011;16089;59.952;10.818;2023-08-21T03:02:42;29.20;;;9.48;;
28988;SDS011;16089;59.952;10.818;2023-08-21T03:05:08;32.78;;;9.63;;
28988;SDS011;16089;59.952;10.818;2023-08-21T03:07:36;32.05;;;10.07;;
28988;SDS011;16089;59.952;10.818;2023-08-21T03:10:03;28.00;;;9.85;;
28988;SDS011;16089;59.952;10.818;2023-08-21T03:12:29;32.20;;;9.52;;
28988;SDS011;16089;59.952;10.818;2023-08-21T03:14:56;24.58;;;8.80;;
28988;SDS011;16089;59.952;10.818;2023-08-21T03:17:22;24.90;;;9.25;;
28988;SDS011;16089;59.952;10.818;2023-08-21T03:19:49;34.30;;;9.68;;
28988;SDS011;16089;59.952;10.818;2023-08-21T03:22:15;33.20;;;10.45;;
28988;SDS011;16089;59.952;10.818;2023-08-21T03:24:43;29.15;;;9.90;;
28988;SDS011;16089;59.952;10.818;2023-08-21T03:27:09;27.33;;;8.93;;
28988;SDS011;16089;59.952;10.818;2023-08-21T03:29:36;24.77;;;8.80;;
28988;SDS011;16089;59.952;10.818;2023-08-21T03:32:02;27.67;;;9.00;;
28988;SDS011;16089;59.952;10.818;2023-08-21T03:34:28;29.42;;;8.48;;
28988;SDS011;16089;59.952;10.818;2023-08-21T03:36:55;20.88;;;7.88;;
28988;SDS011;16089;59.952;10.818;2023-08-21T03:39:21;25.50;;;8.82;;
28988;SDS011;16089;59.952;10.818;2023-08-21T03:41:49;23.02;;;8.70;;
28988;SDS011;16089;59.952;10.818;2023-08-21T03:44:15;27.83;;;8.93;;
28988;SDS011;16089;59.952;10.818;2023-08-21T03:46:41;26.95;;;8.63;;
28988;SDS011;16089;59.952;10.818;2023-08-21T03:49:08;20.73;;;8.18;;
28988;SDS011;16089;59.952;10.818;2023-08-21T03:51:34;23.88;;;8.13;;
28988;SDS011;16089;59.952;10.818;2023-08-21T03:54:00;24.35;;;8.75;;
28988;SDS011;16089;59.952;10.818;2023-08-21T03:56:27;25.85;;;9.02;;
28988;SDS011;16089;59.952;10.818;2023-08-21T03:58:54;23.63;;;8.82;;
28988;SDS011;16089;59.952;10.818;2023-08-21T04:01:21;28.77;;;9.02;;
28988;SDS011;16089;59.952;10.818;2023-08-21T04:03:47;26.88;;;8.82;;
28988;SDS011;16089;59.952;10.818;2023-08-21T04:06:13;28.13;;;8.68;;
28988;SDS011;16089;59.952;10.818;2023-08-21T04:08:40;22.75;;;8.57;;
28988;SDS011;16089;59.952;10.818;2023-08-21T04:11:06;25.67;;;8.73;;
28988;SDS011;16089;59.952;10.818;2023-08-21T04:13:32;24.35;;;9.18;;
28988;SDS011;16089;59.952;10.818;2023-08-21T04:16:00;28.02;;;9.40;;
28988;SDS011;16089;59.952;10.818;2023-08-21T04:18:27;29.05;;;10.73;;
28988;SDS011;16089;59.952;10.818;2023-08-21T04:20:53;29.70;;;9.27;;
28988;SDS011;16089;59.952;10.818;2023-08-21T04:23:19;26.67;;;9.45;;
28988;SDS011;16089;59.952;10.818;2023-08-21T04:25:46;29.55;;;10.38;;
28988;SDS011;16089;59.952;10.818;2023-08-21T04:28:12;34.85;;;11.65;;
28988;SDS011;16089;59.952;10.818;2023-08-21T04:30:39;33.88;;;10.43;;
28988;SDS011;16089;59.952;10.818;2023-08-21T04:33:07;24.85;;;10.98;;
28988;SDS011;16089;59.952;10.818;2023-08-21T04:35:36;26.75;;;10.38;;
28988;SDS011;16089;59.952;10.818;2023-08-21T04:38:02;29.60;;;11.43;;
28988;SDS011;16089;59.952;10.818;2023-08-21T04:40:28;26.27;;;10.70;;
28988;SDS011;16089;59.952;10.818;2023-08-21T04:42:55;29.45;;;10.48;;
28988;SDS011;16089;59.952;10.818;2023-08-21T04:45:21;25.48;;;10.40;;
28988;SDS011;16089;59.952;10.818;2023-08-21T04:47:47;30.20;;;10.93;;
28988;SDS011;16089;59.952;10.818;2023-08-21T04:50:15;30.63;;;11.15;;
28988;SDS011;16089;59.952;10.818;2023-08-21T04:52:41;33.95;;;12.18;;
28988;SDS011;16089;59.952;10.818;2023-08-21T04:55:08;25.10;;;12.00;;
28988;SDS011;16089;59.952;10.818;2023-08-21T04:57:34;28.75;;;12.52;;
28988;SDS011;16089;59.952;10.818;2023-08-21T05:00:01;28.95;;;12.82;;
28988;SDS011;16089;59.952;10.818;2023-08-21T05:02:29;28.73;;;11.57;;
28988;SDS011;16089;59.952;10.818;2023-08-21T05:04:55;35.10;;;13.43;;
28988;SDS011;16089;59.952;10.818;2023-08-21T05:07:23;31.88;;;11.80;;
28988;SDS011;16089;59.952;10.818;2023-08-21T05:09:49;26.88;;;12.18;;
28988;SDS011;16089;59.952;10.818;2023-08-21T05:12:15;27.25;;;11.75;;
28988;SDS011;16089;59.952;10.818;2023-08-21T05:14:42;31.35;;;12.65;;
28988;SDS011;16089;59.952;10.818;2023-08-21T05:17:08;21.33;;;10.60;;
28988;SDS011;16089;59.952;10.818;2023-08-21T05:19:34;21.48;;;10.98;;
28988;SDS011;16089;59.952;10.818;2023-08-21T05:22:00;23.25;;;10.85;;
28988;SDS011;16089;59.952;10.818;2023-08-21T05:24:28;29.40;;;10.10;;
28988;SDS011;16089;59.952;10.818;2023-08-21T05:26:55;22.10;;;10.15;;
28988;SDS011;16089;59.952;10.818;2023-08-21T05:29:22;26.38;;;10.82;;
28988;SDS011;16089;59.952;10.818;2023-08-21T05:31:48;28.08;;;11.10;;
28988;SDS011;16089;59.952;10.818;2023-08-21T05:34:15;25.65;;;11.32;;
28988;SDS011;16089;59.952;10.818;2023-08-21T05:36:41;23.08;;;11.20;;
28988;SDS011;16089;59.952;10.818;2023-08-21T05:39:08;25.33;;;11.32;;
28988;SDS011;16089;59.952;10.818;2023-08-21T05:41:35;24.17;;;10.43;;
28988;SDS011;16089;59.952;10.818;2023-08-21T05:44:02;23.17;;;10.63;;
28988;SDS011;16089;59.952;10.818;2023-08-21T05:46:29;19.17;;;9.93;;
28988;SDS011;16089;59.952;10.818;2023-08-21T05:48:55;27.58;;;11.05;;
28988;SDS011;16089;59.952;10.818;2023-08-21T05:51:21;25.95;;;11.68;;
28988;SDS011;16089;59.952;10.818;2023-08-21T05:53:48;21.35;;;10.80;;
28988;SDS011;16089;59.952;10.818;2023-08-21T05:56:14;25.05;;;11.70;;
28988;SDS011;16089;59.952;10.818;2023-08-21T05:58:41;26.60;;;11.43;;
28988;SDS011;16089;59.952;10.818;2023-08-21T06:01:08;22.92;;;11.02;;
28988;SDS011;16089;59.952;10.818;2023-08-21T06:03:34;23.83;;;11.30;;
28988;SDS011;16089;59.952;10.818;2023-08-21T06:06:00;18.17;;;10.25;;
28988;SDS011;16089;59.952;10.818;2023-08-21T06:08:27;17.70;;;9.38;;
28988;SDS011;16089;59.952;10.818;2023-08-21T06:10:53;18.85;;;9.60;;
28988;SDS011;16089;59.952;10.818;2023-08-21T06:13:19;21.27;;;10.07;;
28988;SDS011;16089;59.952;10.818;2023-08-21T06:15:47;16.80;;;9.00;;
28988;SDS011;16089;59.952;10.818;2023-08-21T06:18:13;20.08;;;8.15;;
28988;SDS011;16089;59.952;10.818;2023-08-21T06:20:41;17.13;;;8.88;;
28988;SDS011;16089;59.952;10.818;2023-08-21T06:23:07;16.63;;;8.20;;
28988;SDS011;16089;59.952;10.818;2023-08-21T06:25:34;17.67;;;9.00;;
28988;SDS011;16089;59.952;10.818;2023-08-21T06:28:00;15.95;;;8.10;;
28988;SDS011;16089;59.952;10.818;2023-08-21T06:30:27;16.73;;;8.23;;
28988;SDS011;16089;59.952;10.818;2023-08-21T06:32:54;19.63;;;9.02;;
28988;SDS011;16089;59.952;10.818;2023-08-21T06:35:21;23.88;;;11.25;;
28988;SDS011;16089;59.952;10.818;2023-08-21T06:37:47;17.75;;;8.40;;
28988;SDS011;16089;59.952;10.818;2023-08-21T06:40:14;14.68;;;7.72;;
28988;SDS011;16089;59.952;10.818;2023-08-21T06:42:40;14.52;;;7.30;;
28988;SDS011;16089;59.952;10.818;2023-08-21T06:45:06;13.38;;;7.35;;
28988;SDS011;16089;59.952;10.818;2023-08-21T06:47:33;12.90;;;6.90;;
28988;SDS011;16089;59.952;10.818;2023-08-21T06:50:00;12.00;;;6.53;;
28988;SDS011;16089;59.952;10.818;2023-08-21T06:52:27;12.07;;;6.18;;
28988;SDS011;16089;59.952;10.818;2023-08-21T06:54:53;14.88;;;5.63;;
28988;SDS011;16089;59.952;10.818;2023-08-21T06:57:20;15.50;;;6.30;;
28988;SDS011;16089;59.952;10.818;2023-08-21T06:59:47;15.13;;;5.97;;
28988;SDS011;16089;59.952;10.818;2023-08-21T07:02:13;21.50;;;5.85;;
28988;SDS011;16089;59.952;10.818;2023-08-21T07:04:40;11.75;;;6.20;;
28988;SDS011;16089;59.952;10.818;2023-08-21T07:07:08;12.20;;;5.65;;
28988;SDS011;16089;59.952;10.818;2023-08-21T07:09:34;11.80;;;6.30;;
28988;SDS011;16089;59.952;10.818;2023-08-21T07:12:01;13.23;;;5.38;;
28988;SDS011;16089;59.952;10.818;2023-08-21T07:14:28;12.18;;;5.68;;
28988;SDS011;16089;59.952;10.818;2023-08-21T07:16:54;9.85;;;4.85;;
28988;SDS011;16089;59.952;10.818;2023-08-21T07:19:21;10.73;;;5.88;;
28988;SDS011;16089;59.952;10.818;2023-08-21T07:21:47;10.32;;;4.40;;
28988;SDS011;16089;59.952;10.818;2023-08-21T07:24:15;9.15;;;4.40;;
28988;SDS011;16089;59.952;10.818;2023-08-21T07:26:41;11.38;;;4.35;;
28988;SDS011;16089;59.952;10.818;2023-08-21T07:29:08;13.13;;;4.45;;
28988;SDS011;16089;59.952;10.818;2023-08-21T07:31:34;11.75;;;4.53;;
28988;SDS011;16089;59.952;10.818;2023-08-21T07:34:01;11.52;;;4.55;;
28988;SDS011;16089;59.952;10.818;2023-08-21T07:36:27;9.70;;;4.57;;
28988;SDS011;16089;59.952;10.818;2023-08-21T07:38:53;9.50;;;4.38;;
28988;SDS011;16089;59.952;10.818;2023-08-21T07:41:21;11.93;;;4.43;;
28988;SDS011;16089;59.952;10.818;2023-08-21T07:43:48;9.25;;;4.50;;
28988;SDS011;16089;59.952;10.818;2023-08-21T07:46:14;10.18;;;4.40;;
28988;SDS011;16089;59.952;10.818;2023-08-21T07:48:43;11.77;;;4.60;;
28988;SDS011;16089;59.952;10.818;2023-08-21T07:51:09;10.93;;;4.13;;
28988;SDS011;16089;59.952;10.818;2023-08-21T07:53:36;8.52;;;4.38;;
28988;SDS011;16089;59.952;10.818;2023-08-21T07:56:02;11.48;;;4.32;;
28988;SDS011;16089;59.952;10.818;2023-08-21T07:58:31;10.75;;;5.10;;
28988;SDS011;16089;59.952;10.818;2023-08-21T08:00:57;9.20;;;4.90;;
28988;SDS011;16089;59.952;10.818;2023-08-21T08:03:24;12.32;;;4.63;;
28988;SDS011;16089;59.952;10.818;2023-08-21T08:05:50;8.50;;;3.90;;
28988;SDS011;16089;59.952;10.818;2023-08-21T08:08:17;11.85;;;4.07;;
28988;SDS011;16089;59.952;10.818;2023-08-21T08:10:43;7.50;;;3.70;;
28988;SDS011;16089;59.952;10.818;2023-08-21T08:13:10;10.55;;;3.80;;
28988;SDS011;16089;59.952;10.818;2023-08-21T08:15:38;10.35;;;3.58;;
28988;SDS011;16089;59.952;10.818;2023-08-21T08:18:04;8.48;;;3.72;;
28988;SDS011;16089;59.952;10.818;2023-08-21T08:20:32;8.10;;;3.92;;
28988;SDS011;16089;59.952;10.818;2023-08-21T08:22:58;8.88;;;3.47;;
28988;SDS011;16089;59.952;10.818;2023-08-21T08:25:25;10.95;;;3.55;;
28988;SDS011;16089;59.952;10.818;2023-08-21T08:27:51;8.65;;;3.75;;
28988;SDS011;16089;59.952;10.818;2023-08-21T08:30:18;10.82;;;3.35;;
28988;SDS011;16089;59.952;10.818;2023-08-21T08:32:45;7.80;;;3.22;;
28988;SDS011;16089;59.952;10.818;2023-08-21T08:35:12;8.23;;;3.13;;
28988;SDS011;16089;59.952;10.818;2023-08-21T08:37:38;9.40;;;3.78;;
28988;SDS011;16089;59.952;10.818;2023-08-21T08:40:05;8.60;;;3.15;;
28988;SDS011;16089;59.952;10.818;2023-08-21T08:42:31;9.05;;;3.10;;
28988;SDS011;16089;59.952;10.818;2023-08-21T08:44:58;6.55;;;2.90;;
28988;SDS011;16089;59.952;10.818;2023-08-21T08:47:28;5.50;;;2.92;;
28988;SDS011;16089;59.952;10.818;2023-08-21T08:49:56;7.03;;;2.83;;
28988;SDS011;16089;59.952;10.818;2023-08-21T08:52:24;6.50;;;3.15;;
28988;SDS011;16089;59.952;10.818;2023-08-21T08:54:51;11.25;;;3.20;;
28988;SDS011;16089;59.952;10.818;2023-08-21T08:57:18;7.40;;;2.65;;
28988;SDS011;16089;59.952;10.818;2023-08-21T08:59:44;6.28;;;2.40;;
28988;SDS011;16089;59.952;10.818;2023-08-21T09:02:10;6.03;;;2.60;;
28988;SDS011;16089;59.952;10.818;2023-08-21T09:04:36;8.38;;;2.70;;
28988;SDS011;16089;59.952;10.818;2023-08-21T09:07:07;8.05;;;2.90;;
28988;SDS011;16089;59.952;10.818;2023-08-21T09:09:37;5.13;;;2.20;;
28988;SDS011;16089;59.952;10.818;2023-08-21T09:12:06;6.63;;;2.40;;
28988;SDS011;16089;59.952;10.818;2023-08-21T09:14:33;8.90;;;2.50;;
28988;SDS011;16089;59.952;10.818;2023-08-21T09:17:00;7.45;;;2.70;;
28988;SDS011;16089;59.952;10.818;2023-08-21T09:19:29;5.65;;;2.50;;
28988;SDS011;16089;59.952;10.818;2023-08-21T09:21:56;5.63;;;2.25;;
28988;SDS011;16089;59.952;10.818;2023-08-21T09:24:24;9.25;;;2.53;;
28988;SDS011;16089;59.952;10.818;2023-08-21T09:26:50;5.95;;;2.10;;
28988;SDS011;16089;59.952;10.818;2023-08-21T09:29:17;8.32;;;2.40;;
28988;SDS011;16089;59.952;10.818;2023-08-21T09:31:44;7.40;;;2.22;;
28988;SDS011;16089;59.952;10.818;2023-08-21T09:34:12;7.10;;;2.58;;
28988;SDS011;16089;59.952;10.818;2023-08-21T09:36:38;9.65;;;2.05;;
28988;SDS011;16089;59.952;10.818;2023-08-21T09:39:05;8.35;;;1.80;;
28988;SDS011;16089;59.952;10.818;2023-08-21T09:41:33;4.35;;;1.75;;
28988;SDS011;16089;59.952;10.818;2023-08-21T09:43:59;4.97;;;1.88;;
28988;SDS011;16089;59.952;10.818;2023-08-21T09:46:26;4.68;;;1.75;;
28988;SDS011;16089;59.952;10.818;2023-08-21T09:48:53;8.02;;;1.98;;
28988;SDS011;16089;59.952;10.818;2023-08-21T09:51:19;7.72;;;1.90;;
28988;SDS011;16089;59.952;10.818;2023-08-21T09:53:46;6.70;;;2.22;;
28988;SDS011;16089;59.952;10.818;2023-08-21T09:56:13;7.35;;;1.80;;
28988;SDS011;16089;59.952;10.818;2023-08-21T09:58:41;6.75;;;1.85;;
28988;SDS011;16089;59.952;10.818;2023-08-21T10:01:09;6.57;;;1.98;;
28988;SDS011;16089;59.952;10.818;2023-08-21T10:03:39;4.72;;;1.95;;
28988;SDS011;16089;59.952;10.818;2023-08-21T10:06:07;7.88;;;2.03;;
28988;SDS011;16089;59.952;10.818;2023-08-21T10:08:36;6.45;;;1.73;;
28988;SDS011;16089;59.952;10.818;2023-08-21T10:11:04;6.95;;;2.00;;
28988;SDS011;16089;59.952;10.818;2023-08-21T10:13:31;4.75;;;1.77;;
28988;SDS011;16089;59.952;10.818;2023-08-21T10:15:59;6.65;;;1.98;;
28988;SDS011;16089;59.952;10.818;2023-08-21T10:18:29;6.38;;;1.60;;
28988;SDS011;16089;59.952;10.818;2023-08-21T10:20:55;4.97;;;1.90;;
28988;SDS011;16089;59.952;10.818;2023-08-21T10:23:26;4.85;;;1.42;;
28988;SDS011;16089;59.952;10.818;2023-08-21T10:25:56;5.65;;;1.50;;
28988;SDS011;16089;59.952;10.818;2023-08-21T10:28:22;4.35;;;1.50;;
28988;SDS011;16089;59.952;10.818;2023-08-21T10:30:49;3.97;;;1.73;;
28988;SDS011;16089;59.952;10.818;2023-08-21T10:33:17;10.27;;;3.80;;
28988;SDS011;16089;59.952;10.818;2023-08-21T10:36:05;5.80;;;2.60;;
28988;SDS011;16089;59.952;10.818;2023-08-21T10:38:31;7.60;;;2.20;;
28988;SDS011;16089;59.952;10.818;2023-08-21T10:41:05;5.75;;;1.70;;
28988;SDS011;16089;59.952;10.818;2023-08-21T10:43:41;7.45;;;1.55;;
28988;SDS011;16089;59.952;10.818;2023-08-21T10:46:08;6.15;;;1.40;;
28988;SDS011;16089;59.952;10.818;2023-08-21T10:48:35;4.93;;;1.38;;
28988;SDS011;16089;59.952;10.818;2023-08-21T10:51:01;6.32;;;1.42;;
28988;SDS011;16089;59.952;10.818;2023-08-21T10:53:30;6.47;;;1.48;;
28988;SDS011;16089;59.952;10.818;2023-08-21T10:56:00;4.38;;;1.40;;
28988;SDS011;16089;59.952;10.818;2023-08-21T10:58:27;7.65;;;1.30;;
28988;SDS011;16089;59.952;10.818;2023-08-21T11:00:56;5.20;;;1.20;;
28988;SDS011;16089;59.952;10.818;2023-08-21T11:03:23;3.95;;;1.10;;
28988;SDS011;16089;59.952;10.818;2023-08-21T11:05:59;4.57;;;1.10;;
28988;SDS011;16089;59.952;10.818;2023-08-21T11:08:25;6.43;;;3.83;;
28988;SDS011;16089;59.952;10.818;2023-08-21T11:10:53;7.43;;;3.17;;
28988;SDS011;16089;59.952;10.818;2023-08-21T11:13:22;5.45;;;1.10;;
28988;SDS011;16089;59.952;10.818;2023-08-21T11:15:49;3.72;;;1.08;;
28988;SDS011;16089;59.952;10.818;2023-08-21T11:18:28;4.03;;;1.00;;
28988;SDS011;16089;59.952;10.818;2023-08-21T11:21:02;5.78;;;1.13;;
28988;SDS011;16089;59.952;10.818;2023-08-21T11:23:31;5.60;;;1.10;;
28988;SDS011;16089;59.952;10.818;2023-08-21T11:25:59;8.00;;;1.10;;
28988;SDS011;16089;59.952;10.818;2023-08-21T11:28:25;5.78;;;1.25;;
28988;SDS011;16089;59.952;10.818;2023-08-21T11:30:52;4.45;;;1.10;;
28988;SDS011;16089;59.952;10.818;2023-08-21T11:33:18;3.88;;;0.90;;
28988;SDS011;16089;59.952;10.818;2023-08-21T11:35:44;3.53;;;0.90;;
28988;SDS011;16089;59.952;10.818;2023-08-21T11:38:14;4.25;;;1.05;;
28988;SDS011;16089;59.952;10.818;2023-08-21T11:40:41;5.95;;;0.95;;
28988;SDS011;16089;59.952;10.818;2023-08-21T11:43:08;3.47;;;0.80;;
28988;SDS011;16089;59.952;10.818;2023-08-21T11:45:37;2.88;;;0.93;;
28988;SDS011;16089;59.952;10.818;2023-08-21T11:48:03;2.65;;;0.77;;
28988;SDS011;16089;59.952;10.818;2023-08-21T11:50:30;4.13;;;0.88;;
28988;SDS011;16089;59.952;10.818;2023-08-21T11:52:56;3.30;;;0.90;;
28988;SDS011;16089;59.952;10.818;2023-08-21T11:55:22;3.13;;;0.82;;
28988;SDS011;16089;59.952;10.818;2023-08-21T11:57:49;3.22;;;1.00;;
28988;SDS011;16089;59.952;10.818;2023-08-21T12:00:17;5.65;;;0.90;;
28988;SDS011;16089;59.952;10.818;2023-08-21T12:02:53;2.28;;;0.68;;
28988;SDS011;16089;59.952;10.818;2023-08-21T12:05:20;4.07;;;0.90;;
28988;SDS011;16089;59.952;10.818;2023-08-21T12:07:46;4.00;;;0.90;;
28988;SDS011;16089;59.952;10.818;2023-08-21T12:10:13;1.05;;;0.60;;
28988;SDS011;16089;59.952;10.818;2023-08-21T12:12:39;2.00;;;0.70;;
28988;SDS011;16089;59.952;10.818;2023-08-21T12:15:06;3.08;;;0.85;;
28988;SDS011;16089;59.952;10.818;2023-08-21T12:17:34;3.13;;;0.80;;
28988;SDS011;16089;59.952;10.818;2023-08-21T12:20:00;2.08;;;0.80;;
28988;SDS011;16089;59.952;10.818;2023-08-21T12:25:01;2.50;;;0.70;;
28988;SDS011;16089;59.952;10.818;2023-08-21T12:27:30;1.45;;;0.60;;
28988;SDS011;16089;59.952;10.818;2023-08-21T12:29:56;2.10;;;0.80;;
28988;SDS011;16089;59.952;10.818;2023-08-21T12:32:22;4.90;;;0.88;;
28988;SDS011;16089;59.952;10.818;2023-08-21T12:34:50;3.45;;;0.82;;
28988;SDS011;16089;59.952;10.818;2023-08-21T12:37:17;3.50;;;0.80;;
28988;SDS011;16089;59.952;10.818;2023-08-21T12:39:43;6.65;;;1.20;;
28988;SDS011;16089;59.952;10.818;2023-08-21T12:42:09;4.32;;;0.77;;
28988;SDS011;16089;59.952;10.818;2023-08-21T12:44:36;4.70;;;0.90;;
28988;SDS011;16089;59.952;10.818;2023-08-21T12:47:02;3.45;;;0.90;;
28988;SDS011;16089;59.952;10.818;2023-08-21T12:49:29;2.78;;;0.90;;
28988;SDS011;16089;59.952;10.818;2023-08-21T12:51:56;2.33;;;0.80;;
28988;SDS011;16089;59.952;10.818;2023-08-21T12:54:23;7.30;;;0.98;;
28988;SDS011;16089;59.952;10.818;2023-08-21T12:56:50;3.28;;;1.30;;
28988;SDS011;16089;59.952;10.818;2023-08-21T12:59:16;2.60;;;0.90;;
28988;SDS011;16089;59.952;10.818;2023-08-21T13:01:43;1.70;;;0.77;;
28988;SDS011;16089;59.952;10.818;2023-08-21T13:04:09;2.45;;;0.80;;
28988;SDS011;16089;59.952;10.818;2023-08-21T13:06:35;3.00;;;1.00;;
28988;SDS011;16089;59.952;10.818;2023-08-21T13:09:03;1.70;;;0.93;;
28988;SDS011;16089;59.952;10.818;2023-08-21T13:11:30;3.53;;;0.80;;
28988;SDS011;16089;59.952;10.818;2023-08-21T13:13:57;4.47;;;1.17;;
28988;SDS011;16089;59.952;10.818;2023-08-21T13:16:23;2.22;;;0.98;;
28988;SDS011;16089;59.952;10.818;2023-08-21T13:18:49;2.25;;;0.90;;
28988;SDS011;16089;59.952;10.818;2023-08-21T13:21:16;3.38;;;1.10;;
28988;SDS011;16089;59.952;10.818;2023-08-21T13:23:42;2.88;;;0.90;;
28988;SDS011;16089;59.952;10.818;2023-08-21T13:26:09;3.05;;;0.85;;
28988;SDS011;16089;59.952;10.818;2023-08-21T13:28:36;2.30;;;0.90;;
28988;SDS011;16089;59.952;10.818;2023-08-21T13:31:02;3.90;;;0.93;;
28988;SDS011;16089;59.952;10.818;2023-08-21T13:33:29;3.47;;;0.80;;
28988;SDS011;16089;59.952;10.818;2023-08-21T13:35:55;8.50;;;1.40;;
28988;SDS011;16089;59.952;10.818;2023-08-21T13:38:21;7.53;;;0.90;;
28988;SDS011;16089;59.952;10.818;2023-08-21T13:40:48;2.65;;;0.90;;
28988;SDS011;16089;59.952;10.818;2023-08-21T13:43:15;3.80;;;1.02;;
28988;SDS011;16089;59.952;10.818;2023-08-21T13:45:42;2.58;;;0.90;;
28988;SDS011;16089;59.952;10.818;2023-08-21T13:48:08;4.00;;;1.08;;
28988;SDS011;16089;59.952;10.818;2023-08-21T13:50:34;3.28;;;0.98;;
28988;SDS011;16089;59.952;10.818;2023-08-21T13:53:01;3.10;;;1.13;;
28988;SDS011;16089;59.952;10.818;2023-08-21T13:55:27;3.60;;;0.70;;
28988;SDS011;16089;59.952;10.818;2023-08-21T13:57:53;3.50;;;0.90;;
28988;SDS011;16089;59.952;10.818;2023-08-21T14:00:21;1.65;;;0.60;;
28988;SDS011;16089;59.952;10.818;2023-08-21T14:02:48;1.98;;;0.65;;
28988;SDS011;16089;59.952;10.818;2023-08-21T14:05:14;1.65;;;0.60;;
28988;SDS011;16089;59.952;10.818;2023-08-21T14:07:40;2.42;;;0.63;;
28988;SDS011;16089;59.952;10.818;2023-08-21T14:10:07;2.47;;;0.70;;
28988;SDS011;16089;59.952;10.818;2023-08-21T14:12:33;2.28;;;0.60;;
28988;SDS011;16089;59.952;10.818;2023-08-21T14:15:00;2.92;;;0.68;;
28988;SDS011;16089;59.952;10.818;2023-08-21T14:17:27;1.58;;;0.65;;
28988;SDS011;16089;59.952;10.818;2023-08-21T14:19:54;2.30;;;0.65;;
28988;SDS011;16089;59.952;10.818;2023-08-21T14:22:20;3.17;;;0.77;;
28988;SDS011;16089;59.952;10.818;2023-08-21T14:24:47;3.65;;;0.60;;